Time;durP1;ratioP1;P1;durP2;ratioP2;P2;SDS_P1;SDS_P2;PMS_P1;PMS_P2;Temp;Humidity;BMP_temperature;BMP_pressure;BME280_temperature;BME280_humidity;BME280_pressure;Samples;Min_cycle;Max_cycle;Signal;HPM_P1;HPM_P2
2022/01/01 00:02:10;;;;;;;29.00;8.57;;;;;;;-145.00;100.00;60578.66;5078243;28;20131;-51
2022/01/01 00:04:58;;;;;;;22.75;8.57;;;;;;;-145.00;100.00;60578.66;5078109;28;20055;-52
2022/01/01 00:07:27;;;;;;;29.13;10.05;;;;;;;-145.00;100.00;60578.66;5077821;28;20059;-52
2022/01/01 00:09:55;;;;;;;28.67;8.63;;;;;;;-145.00;100.00;60578.66;5078081;28;20091;-51
2022/01/01 00:12:27;;;;;;;29.88;8.90;;;;;;;-145.00;100.00;60578.66;5078633;28;20060;-51
2022/01/01 00:14:55;;;;;;;26.90;8.23;;;;;;;-145.00;100.00;60578.66;5077919;28;20052;-52
2022/01/01 00:17:25;;;;;;;22.02;7.38;;;;;;;-145.00;100.00;60578.66;5077899;28;20420;-51
2022/01/01 00:19:53;;;;;;;19.17;7.50;;;;;;;-145.00;100.00;60578.66;5078244;28;20060;-51
2022/01/01 00:22:21;;;;;;;23.80;7.53;;;;;;;-145.00;100.00;60578.66;5077545;28;20064;-51
2022/01/01 00:24:49;;;;;;;23.92;8.02;;;;;;;-145.00;100.00;60578.66;5078357;28;20057;-51
2022/01/01 00:27:18;;;;;;;27.40;7.40;;;;;;;-145.00;100.00;60578.66;5077428;28;20065;-50
2022/01/01 00:29:46;;;;;;;20.75;7.43;;;;;;;-145.00;100.00;60578.66;5077695;28;20439;-51
2022/01/01 00:32:14;;;;;;;24.83;8.05;;;;;;;-145.00;100.00;60578.66;5077268;28;20052;-51
2022/01/01 00:34:44;;;;;;;29.00;6.95;;;;;;;-145.00;100.00;60578.66;5077025;28;20500;-49
2022/01/01 00:37:12;;;;;;;23.92;7.05;;;;;;;-145.00;100.00;60578.66;5077551;28;20056;-51
2022/01/01 00:39:40;;;;;;;20.60;6.43;;;;;;;-145.00;100.00;60578.66;5077251;28;20071;-50
2022/01/01 00:42:08;;;;;;;23.58;5.90;;;;;;;-145.00;100.00;60578.66;5077070;28;20428;-51
2022/01/01 00:44:36;;;;;;;18.85;6.80;;;;;;;-145.00;100.00;60578.66;5078345;28;20056;-50
2022/01/01 00:47:05;;;;;;;23.50;6.43;;;;;;;-145.00;100.00;60578.66;5077070;28;20056;-51
2022/01/01 00:49:34;;;;;;;17.13;5.97;;;;;;;-145.00;100.00;60578.66;5077548;28;20052;-52
2022/01/01 00:52:04;;;;;;;23.45;6.63;;;;;;;-145.00;100.00;60578.66;5076986;28;20066;-51
2022/01/01 00:54:32;;;;;;;15.93;5.53;;;;;;;-145.00;100.00;60578.66;5077362;28;20057;-50
2022/01/01 00:57:00;;;;;;;18.58;6.13;;;;;;;-145.00;100.00;60578.66;5077451;28;20052;-51
2022/01/01 00:59:30;;;;;;;19.75;6.00;;;;;;;-145.00;100.00;60578.66;5076888;28;20052;-49
2022/01/01 01:01:59;;;;;;;24.17;6.22;;;;;;;-145.00;100.00;60578.66;5076811;28;20425;-51
2022/01/01 01:04:27;;;;;;;20.95;6.38;;;;;;;-145.00;100.00;60578.66;5076519;28;20094;-51
2022/01/01 01:06:56;;;;;;;22.63;6.57;;;;;;;-145.00;100.00;60578.66;5077261;28;20534;-50
2022/01/01 01:09:27;;;;;;;19.38;6.18;;;;;;;-145.00;100.00;60578.66;5077271;28;20411;-51
2022/01/01 01:11:56;;;;;;;26.45;5.63;;;;;;;-145.00;100.00;60578.66;5075330;28;20061;-49
2022/01/01 01:14:27;;;;;;;19.27;6.85;;;;;;;-145.00;100.00;60578.66;5077736;28;20060;-50
2022/01/01 01:16:56;;;;;;;15.20;5.32;;;;;;;-145.00;100.00;60578.66;5077494;28;20052;-50
2022/01/01 01:19:24;;;;;;;20.58;6.40;;;;;;;-145.00;100.00;60578.66;5076801;28;20067;-51
2022/01/01 01:21:53;;;;;;;20.30;5.10;;;;;;;-145.00;100.00;60578.66;5076654;28;20063;-51
2022/01/01 01:24:23;;;;;;;18.67;5.05;;;;;;;-145.00;100.00;60578.66;5077315;28;20075;-52
2022/01/01 01:26:54;;;;;;;13.40;4.78;;;;;;;-145.00;100.00;60578.66;5077030;28;20062;-51
2022/01/01 01:29:23;;;;;;;19.50;5.45;;;;;;;-145.00;100.00;60578.66;5076635;28;20053;-51
2022/01/01 01:31:52;;;;;;;14.50;4.95;;;;;;;-145.00;100.00;60578.66;5077363;28;20063;-50
2022/01/01 01:34:20;;;;;;;14.05;5.07;;;;;;;-145.00;100.00;60578.66;5076020;28;20057;-52
2022/01/01 01:36:48;;;;;;;19.02;4.75;;;;;;;-145.00;100.00;60578.66;5076186;28;20059;-52
2022/01/01 01:39:16;;;;;;;17.08;4.78;;;;;;;-145.00;100.00;60578.66;5076116;28;20064;-52
2022/01/01 01:41:46;;;;;;;15.32;4.55;;;;;;;-145.00;100.00;60578.66;5076844;28;20087;-52
2022/01/01 01:44:26;;;;;;;9.57;4.20;;;;;;;-145.00;100.00;60578.66;5076055;28;20064;-51
2022/01/01 01:46:55;;;;;;;15.35;4.53;;;;;;;-145.00;100.00;60578.66;5076572;28;20063;-52
2022/01/01 01:49:23;;;;;;;15.18;5.05;;;;;;;-145.00;100.00;60578.66;5076199;28;20052;-50
2022/01/01 01:51:51;;;;;;;12.55;4.00;;;;;;;-145.00;100.00;60578.66;5076151;28;20061;-50
2022/01/01 01:54:20;;;;;;;11.55;3.58;;;;;;;-145.00;100.00;60578.66;5075576;28;20053;-51
2022/01/01 01:56:49;;;;;;;13.50;3.58;;;;;;;-145.00;100.00;60578.66;5075749;28;20520;-51
2022/01/01 01:59:17;;;;;;;12.07;3.72;;;;;;;-145.00;100.00;60578.66;5075747;28;20052;-49
2022/01/01 02:01:46;;;;;;;13.25;4.15;;;;;;;-145.00;100.00;60578.66;5075908;28;20063;-52
2022/01/01 02:04:15;;;;;;;16.80;4.15;;;;;;;-145.00;100.00;60578.66;5076244;28;20087;-50
2022/01/01 02:06:44;;;;;;;16.92;4.43;;;;;;;-145.00;100.00;60578.66;5076695;28;20086;-50
2022/01/01 02:09:13;;;;;;;11.63;3.63;;;;;;;-145.00;100.00;60578.66;5075836;28;20091;-51
2022/01/01 02:11:42;;;;;;;11.65;3.53;;;;;;;-145.00;100.00;60578.66;5075779;28;20060;-51
2022/01/01 02:14:16;;;;;;;11.65;3.78;;;;;;;-145.00;100.00;60578.66;5076608;28;20057;-51
2022/01/01 02:17:08;;;;;;;16.15;4.07;;;;;;;-145.00;100.00;60578.66;5075419;28;20052;-51
2022/01/01 02:20:00;;;;;;;9.85;4.07;;;;;;;-145.00;100.00;60578.66;5076312;28;20071;-50
2022/01/01 02:22:37;;;;;;;9.02;3.08;;;;;;;-145.00;100.00;60578.66;5075638;28;20063;-50
2022/01/01 02:25:06;;;;;;;14.52;3.97;;;;;;;-145.00;100.00;60578.66;5075246;28;20095;-52
2022/01/01 02:27:36;;;;;;;8.13;3.63;;;;;;;-145.00;100.00;60578.66;5075149;28;20103;-51
2022/01/01 02:30:06;;;;;;;14.85;4.55;;;;;;;-145.00;100.00;60578.66;5074796;28;20053;-52
2022/01/01 02:32:36;;;;;;;10.53;3.70;;;;;;;-145.00;100.00;60578.66;5074877;28;20095;-50
2022/01/01 02:35:05;;;;;;;14.73;3.78;;;;;;;-145.00;100.00;60578.66;5075844;28;20285;-52
2022/01/01 02:37:35;;;;;;;11.98;3.75;;;;;;;-145.00;100.00;60578.66;5076059;28;20060;-49
2022/01/01 02:40:04;;;;;;;11.48;3.40;;;;;;;-145.00;100.00;60578.66;5074688;28;20057;-51
2022/01/01 02:42:33;;;;;;;14.20;4.00;;;;;;;-145.00;100.00;60578.66;5075926;28;20061;-49
2022/01/01 02:45:06;;;;;;;12.68;4.07;;;;;;;-145.00;100.00;60578.66;5075240;28;20056;-49
2022/01/01 02:47:35;;;;;;;12.70;3.65;;;;;;;-145.00;100.00;60578.66;5074536;28;20143;-52
2022/01/01 02:50:04;;;;;;;14.10;3.63;;;;;;;-145.00;100.00;60578.66;5074966;28;20412;-51
2022/01/01 02:52:35;;;;;;;15.38;2.95;;;;;;;-145.00;100.00;60578.66;5075296;28;20082;-50
2022/01/01 02:55:04;;;;;;;12.45;3.72;;;;;;;-145.00;100.00;60578.66;5074414;28;20056;-51
2022/01/01 02:57:32;;;;;;;11.70;3.60;;;;;;;-145.00;100.00;60578.66;5074625;28;20524;-49
2022/01/01 03:00:00;;;;;;;11.02;3.25;;;;;;;-145.00;100.00;60578.66;5074537;28;20056;-49
2022/01/01 03:02:28;;;;;;;7.68;3.05;;;;;;;-145.00;100.00;60578.66;5074454;28;20139;-50
2022/01/01 03:04:57;;;;;;;8.80;3.40;;;;;;;-145.00;100.00;60578.66;5075668;28;20056;-51
2022/01/01 03:07:25;;;;;;;11.77;3.50;;;;;;;-145.00;100.00;60578.66;5074929;28;20404;-51
2022/01/01 03:09:55;;;;;;;16.60;3.88;;;;;;;-145.00;100.00;60578.66;5074386;28;20056;-51
2022/01/01 03:12:23;;;;;;;13.48;3.38;;;;;;;-145.00;100.00;60578.66;5074394;28;20061;-52
2022/01/01 03:14:51;;;;;;;11.15;3.50;;;;;;;-145.00;100.00;60578.66;5074141;28;20059;-51
2022/01/01 03:17:19;;;;;;;10.02;3.30;;;;;;;-145.00;100.00;60578.66;5074340;28;20524;-49
2022/01/01 03:19:47;;;;;;;8.40;2.90;;;;;;;-145.00;100.00;60578.66;5074260;28;20059;-50
2022/01/01 03:22:16;;;;;;;12.52;3.40;;;;;;;-145.00;100.00;60578.66;5074170;28;20072;-49
2022/01/01 03:24:44;;;;;;;9.63;3.05;;;;;;;-145.00;100.00;60578.66;5074044;28;20063;-52
2022/01/01 03:27:13;;;;;;;10.30;2.88;;;;;;;-145.00;100.00;60578.66;5074194;28;20064;-50
2022/01/01 03:29:42;;;;;;;7.65;2.85;;;;;;;-145.00;100.00;60578.66;5074799;28;20082;-49
2022/01/01 03:32:10;;;;;;;6.75;2.67;;;;;;;-145.00;100.00;60578.66;5074486;28;20067;-52
2022/01/01 03:34:38;;;;;;;10.80;3.08;;;;;;;-145.00;100.00;60578.66;5073331;28;20063;-50
2022/01/01 03:37:06;;;;;;;11.20;2.95;;;;;;;-145.00;100.00;60578.66;5074370;28;20079;-51
2022/01/01 03:39:35;;;;;;;14.05;2.60;;;;;;;-145.00;100.00;60578.66;5074390;28;20052;-52
2022/01/01 03:42:03;;;;;;;9.23;2.78;;;;;;;-145.00;100.00;60578.66;5074275;28;20075;-49
2022/01/01 03:44:33;;;;;;;7.57;2.70;;;;;;;-145.00;100.00;60578.66;5073800;28;20060;-52
2022/01/01 03:47:09;;;;;;;10.25;3.72;;;;;;;-145.00;100.00;60578.66;5074540;28;20052;-51
2022/01/01 03:49:38;;;;;;;7.43;2.70;;;;;;;-145.00;100.00;60578.66;5073730;28;20056;-52
2022/01/01 03:52:07;;;;;;;10.40;2.60;;;;;;;-145.00;100.00;60578.66;5075072;28;20063;-49
2022/01/01 03:54:35;;;;;;;6.78;2.35;;;;;;;-145.00;100.00;60578.66;5074499;28;20419;-51
2022/01/01 03:57:04;;;;;;;10.93;3.17;;;;;;;-145.00;100.00;60578.66;5073931;28;20052;-51
2022/01/01 03:59:34;;;;;;;7.68;2.42;;;;;;;-145.00;100.00;60578.66;5073912;28;20064;-52
2022/01/01 04:02:03;;;;;;;6.28;2.63;;;;;;;-145.00;100.00;60578.66;5074833;28;20139;-49
2022/01/01 04:04:31;;;;;;;7.13;2.67;;;;;;;-145.00;100.00;60578.66;5073613;28;20099;-49
2022/01/01 04:07:01;;;;;;;6.95;2.40;;;;;;;-145.00;100.00;60578.66;5074485;28;20060;-49
2022/01/01 04:09:29;;;;;;;8.02;2.33;;;;;;;-145.00;100.00;60578.66;5074122;28;20102;-51
2022/01/01 04:11:57;;;;;;;6.90;2.38;;;;;;;-145.00;100.00;60578.66;5074228;28;20488;-50
2022/01/01 04:14:25;;;;;;;9.45;2.67;;;;;;;-145.00;100.00;60578.66;5074652;28;20060;-50
2022/01/01 04:16:57;;;;;;;10.25;2.38;;;;;;;-145.00;100.00;60578.66;5074046;28;20507;-49
2022/01/01 04:19:36;;;;;;;9.13;2.50;;;;;;;-145.00;100.00;60578.66;5074457;28;20117;-49
2022/01/01 04:22:04;;;;;;;8.00;2.20;;;;;;;-145.00;100.00;60578.66;5073376;28;20056;-49
2022/01/01 04:24:33;;;;;;;6.57;2.53;;;;;;;-145.00;100.00;60578.66;5074609;28;20059;-52
2022/01/01 04:27:01;;;;;;;9.85;2.35;;;;;;;-145.00;100.00;60578.66;5073679;28;20072;-49
2022/01/01 04:29:30;;;;;;;4.95;2.05;;;;;;;-145.00;100.00;60578.66;5073954;28;20079;-51
2022/01/01 04:32:00;;;;;;;5.90;1.90;;;;;;;-145.00;100.00;60578.66;5074199;28;20063;-51
2022/01/01 04:34:28;;;;;;;9.63;2.33;;;;;;;-145.00;100.00;60578.66;5073916;28;20519;-50
2022/01/01 04:37:01;;;;;;;6.25;1.88;;;;;;;-145.00;100.00;60578.66;5074337;28;20139;-49
2022/01/01 04:39:30;;;;;;;6.72;2.20;;;;;;;-145.00;100.00;60578.66;5073553;28;20059;-51
2022/01/01 04:41:58;;;;;;;9.32;2.55;;;;;;;-145.00;100.00;60578.66;5073520;28;20060;-50
2022/01/01 04:44:26;;;;;;;6.40;2.78;;;;;;;-145.00;100.00;60578.66;5073144;28;20061;-51
2022/01/01 04:46:55;;;;;;;8.65;1.95;;;;;;;-145.00;100.00;60578.66;5076794;28;20088;-51
2022/01/01 04:49:25;;;;;;;6.53;2.15;;;;;;;-145.00;100.00;60578.66;5077393;28;20385;-51
2022/01/01 04:51:53;;;;;;;8.88;2.35;;;;;;;-145.00;100.00;60578.66;5077036;28;20053;-49
2022/01/01 04:54:21;;;;;;;8.48;2.35;;;;;;;-145.00;100.00;60578.66;5078157;28;20423;-49
2022/01/01 04:56:50;;;;;;;5.22;2.10;;;;;;;-145.00;100.00;60578.66;5076913;28;20059;-51
2022/01/01 04:59:18;;;;;;;5.82;2.15;;;;;;;-145.00;100.00;60578.66;5076912;28;20059;-50
2022/01/01 05:01:46;;;;;;;6.40;2.45;;;;;;;-145.00;100.00;60578.66;5077945;28;20053;-50
2022/01/01 05:04:15;;;;;;;7.32;2.30;;;;;;;-145.00;100.00;60578.66;5077552;28;20143;-51
2022/01/01 05:06:49;;;;;;;6.53;2.28;;;;;;;-145.00;100.00;60578.66;5076775;28;20492;-52
2022/01/01 05:09:17;;;;;;;8.43;2.40;;;;;;;-145.00;100.00;60578.66;5076461;28;20508;-52
2022/01/01 05:11:46;;;;;;;11.82;3.15;;;;;;;-145.00;100.00;60578.66;5076982;28;20056;-51
2022/01/01 05:14:14;;;;;;;8.07;3.20;;;;;;;-145.00;100.00;60578.66;5076914;28;20072;-50
2022/01/01 05:16:43;;;;;;;8.63;2.38;;;;;;;-145.00;100.00;60578.66;5077330;28;20056;-51
2022/01/01 05:19:11;;;;;;;11.57;2.95;;;;;;;-145.00;100.00;60578.66;5077076;28;20056;-49
2022/01/01 05:21:39;;;;;;;7.40;2.85;;;;;;;-145.00;100.00;60578.66;5076496;28;20059;-50
2022/01/01 05:24:09;;;;;;;11.68;2.80;;;;;;;-145.00;100.00;60578.66;5076982;28;20061;-50
2022/01/01 05:26:37;;;;;;;10.25;3.00;;;;;;;-145.00;100.00;60578.66;5076914;28;20063;-51
2022/01/01 05:29:05;;;;;;;11.50;3.22;;;;;;;-145.00;100.00;60578.66;5076611;28;20061;-49
2022/01/01 05:31:34;;;;;;;6.32;2.58;;;;;;;-145.00;100.00;60578.66;5076607;28;20067;-49
2022/01/01 05:34:03;;;;;;;9.63;2.60;;;;;;;-145.00;100.00;60578.66;5077482;28;20061;-49
2022/01/01 05:36:31;;;;;;;9.65;2.80;;;;;;;-145.00;100.00;60578.66;5076164;28;20064;-49
2022/01/01 05:38:59;;;;;;;7.90;2.65;;;;;;;-145.00;100.00;60578.66;5076482;28;20057;-50
2022/01/01 05:41:29;;;;;;;12.55;2.78;;;;;;;-145.00;100.00;60578.66;5076422;28;20053;-52
2022/01/01 05:43:57;;;;;;;8.27;2.60;;;;;;;-145.00;100.00;60578.66;5076846;28;20151;-50
2022/01/01 05:46:26;;;;;;;14.50;3.33;;;;;;;-145.00;100.00;60578.66;5076006;28;20056;-51
2022/01/01 05:48:54;;;;;;;7.85;2.60;;;;;;;-145.00;100.00;60578.66;5076854;28;20438;-51
2022/01/01 05:51:22;;;;;;;10.40;3.40;;;;;;;-145.00;100.00;60578.66;5076781;28;20055;-51
2022/01/01 05:53:50;;;;;;;8.77;2.72;;;;;;;-145.00;100.00;60578.66;5077073;28;20135;-49
2022/01/01 05:56:18;;;;;;;7.38;2.67;;;;;;;-145.00;100.00;60578.66;5076472;28;20053;-51
2022/01/01 05:58:48;;;;;;;11.00;3.33;;;;;;;-145.00;100.00;60578.66;5075235;28;20057;-49
2022/01/01 06:01:16;;;;;;;10.65;3.03;;;;;;;-145.00;100.00;60578.66;5076305;28;20060;-49
2022/01/01 06:03:45;;;;;;;8.50;2.90;;;;;;;-145.00;100.00;60578.66;5075777;28;20204;-50
2022/01/01 06:06:13;;;;;;;8.32;2.72;;;;;;;-145.00;100.00;60578.66;5075942;28;20061;-52
2022/01/01 06:08:59;;;;;;;10.38;3.15;;;;;;;-145.00;100.00;60578.66;5076488;28;20139;-51
2022/01/01 06:11:27;;;;;;;9.75;3.03;;;;;;;-145.00;100.00;60578.66;5076207;28;20064;-52
2022/01/01 06:13:57;;;;;;;14.45;3.72;;;;;;;-145.00;100.00;60578.66;5075238;28;20143;-51
2022/01/01 06:16:25;;;;;;;5.90;2.78;;;;;;;-145.00;100.00;60578.66;5075661;28;20070;-51
2022/01/01 06:18:53;;;;;;;10.13;2.92;;;;;;;-145.00;100.00;60578.66;5075849;28;20127;-50
2022/01/01 06:21:22;;;;;;;10.73;2.85;;;;;;;-145.00;100.00;60578.66;5075635;28;20056;-49
2022/01/01 06:23:50;;;;;;;8.48;3.33;;;;;;;-145.00;100.00;60578.66;5074941;28;20056;-49
2022/01/01 06:26:18;;;;;;;15.10;2.92;;;;;;;-145.00;100.00;60578.66;5075257;28;20057;-49
2022/01/01 06:28:46;;;;;;;8.02;3.00;;;;;;;-145.00;100.00;60578.66;5075410;28;20053;-51
2022/01/01 06:31:16;;;;;;;8.70;2.85;;;;;;;-145.00;100.00;60578.66;5075144;28;20059;-51
2022/01/01 06:33:44;;;;;;;9.80;2.92;;;;;;;-145.00;100.00;60578.66;5074850;28;20060;-50
2022/01/01 06:36:14;;;;;;;4.70;2.55;;;;;;;-145.00;100.00;60578.66;5075059;28;20091;-50
2022/01/01 06:38:43;;;;;;;8.75;3.40;;;;;;;-145.00;100.00;60578.66;5074944;28;20053;-50
2022/01/01 06:41:11;;;;;;;10.00;3.60;;;;;;;-145.00;100.00;60578.66;5074949;28;20063;-52
2022/01/01 06:43:40;;;;;;;8.30;2.65;;;;;;;-145.00;100.00;60578.66;5076011;28;20396;-49
2022/01/01 06:46:08;;;;;;;10.77;3.38;;;;;;;-145.00;100.00;60578.66;5075990;28;20063;-50
2022/01/01 06:48:38;;;;;;;14.38;3.58;;;;;;;-145.00;100.00;60578.66;5075041;28;20068;-49
2022/01/01 06:51:06;;;;;;;13.20;2.85;;;;;;;-145.00;100.00;60578.66;5075046;28;20056;-51
2022/01/01 06:53:35;;;;;;;15.32;3.28;;;;;;;-145.00;100.00;60578.66;5075541;28;20056;-52
2022/01/01 06:56:06;;;;;;;8.63;4.00;;;;;;;-145.00;100.00;60578.66;5074925;28;20057;-49
2022/01/01 06:58:35;;;;;;;10.63;3.03;;;;;;;-145.00;100.00;60578.66;5075476;28;20128;-52
2022/01/01 07:01:03;;;;;;;10.63;3.33;;;;;;;-145.00;100.00;60578.66;5074568;28;20066;-51
2022/01/01 07:03:32;;;;;;;11.73;3.55;;;;;;;-145.00;100.00;60578.66;5074464;28;20067;-49
2022/01/01 07:06:02;;;;;;;9.15;3.22;;;;;;;-145.00;100.00;60578.66;5074649;28;20052;-50
2022/01/01 07:08:30;;;;;;;9.07;3.65;;;;;;;-145.00;100.00;60578.66;5075372;28;20053;-50
2022/01/01 07:10:59;;;;;;;10.73;3.60;;;;;;;-145.00;100.00;60578.66;5073630;28;20056;-50
2022/01/01 07:13:27;;;;;;;12.40;3.80;;;;;;;-145.00;100.00;60578.66;5074354;28;20069;-50
2022/01/01 07:15:55;;;;;;;12.52;3.42;;;;;;;-145.00;100.00;60578.66;5074658;28;20052;-49
2022/01/01 07:18:23;;;;;;;11.15;3.30;;;;;;;-145.00;100.00;60578.66;5074989;28;20075;-52
2022/01/01 07:20:52;;;;;;;10.50;3.40;;;;;;;-145.00;100.00;60578.66;5074093;28;20056;-49
2022/01/01 07:23:21;;;;;;;10.57;4.15;;;;;;;-145.00;100.00;60578.66;5074501;28;20057;-50
2022/01/01 07:25:49;;;;;;;12.30;4.47;;;;;;;-145.00;100.00;60578.66;5074492;28;20064;-49
2022/01/01 07:28:18;;;;;;;17.67;5.50;;;;;;;-145.00;100.00;60578.66;5074528;28;20052;-49
2022/01/01 07:30:46;;;;;;;13.95;3.42;;;;;;;-145.00;100.00;60578.66;5074494;28;20060;-49
2022/01/01 07:33:15;;;;;;;10.05;3.30;;;;;;;-145.00;100.00;60578.66;5074533;28;20056;-51
2022/01/01 07:35:43;;;;;;;10.10;3.55;;;;;;;-145.00;100.00;60578.66;5075037;28;20488;-51
2022/01/01 07:38:11;;;;;;;11.90;3.53;;;;;;;-145.00;100.00;60578.66;5074980;28;20071;-49
2022/01/01 07:40:41;;;;;;;15.57;3.35;;;;;;;-145.00;100.00;60578.66;5074070;28;20492;-51
2022/01/01 07:43:13;;;;;;;11.82;4.78;;;;;;;-145.00;100.00;60578.66;5075457;28;20060;-51
2022/01/01 07:45:41;;;;;;;12.75;3.45;;;;;;;-145.00;100.00;60578.66;5074812;28;20053;-51
2022/01/01 07:48:10;;;;;;;14.35;3.80;;;;;;;-145.00;100.00;60578.66;5074043;28;20056;-51
2022/01/01 07:50:38;;;;;;;18.58;4.35;;;;;;;-145.00;100.00;60578.66;5073974;28;20048;-50
2022/01/01 07:53:08;;;;;;;16.42;4.75;;;;;;;-145.00;100.00;60578.66;5074842;28;20087;-51
2022/01/01 07:55:36;;;;;;;16.88;5.18;;;;;;;-145.00;100.00;60578.66;5074978;28;20056;-51
2022/01/01 07:58:07;;;;;;;13.23;3.60;;;;;;;-145.00;100.00;60578.66;5074530;28;20056;-51
2022/01/01 08:00:36;;;;;;;13.75;4.18;;;;;;;-145.00;100.00;60578.66;5075137;28;20060;-51
2022/01/01 08:03:04;;;;;;;14.32;4.22;;;;;;;-145.00;100.00;60578.66;5073891;28;20161;-49
2022/01/01 08:05:32;;;;;;;12.32;4.40;;;;;;;-145.00;100.00;60578.66;5073511;28;20056;-52
2022/01/01 08:08:01;;;;;;;20.20;4.30;;;;;;;-145.00;100.00;60578.66;5074982;28;20056;-51
2022/01/01 08:10:31;;;;;;;12.52;4.13;;;;;;;-145.00;100.00;60578.66;5074108;28;20110;-48
2022/01/01 08:12:59;;;;;;;14.85;4.25;;;;;;;-145.00;100.00;60578.66;5073789;28;20053;-49
2022/01/01 08:15:29;;;;;;;11.55;4.03;;;;;;;-145.00;100.00;60578.66;5073541;28;20070;-51
2022/01/01 08:17:57;;;;;;;13.52;4.20;;;;;;;-145.00;100.00;60578.66;5074062;28;20131;-51
2022/01/01 08:20:37;;;;;;;11.77;4.30;;;;;;;-145.00;100.00;60578.66;5074733;28;20068;-49
2022/01/01 08:23:05;;;;;;;11.88;4.13;;;;;;;-145.00;100.00;60578.66;5077924;28;20053;-50
2022/01/01 08:25:34;;;;;;;15.23;4.13;;;;;;;-145.00;100.00;60578.66;5078673;28;20056;-51
2022/01/01 08:28:02;;;;;;;11.95;4.25;;;;;;;-145.00;100.00;60578.66;5077478;28;20052;-48
2022/01/01 08:30:32;;;;;;;12.27;4.72;;;;;;;-145.00;100.00;60578.66;5077681;28;20057;-49
2022/01/01 08:33:02;;;;;;;20.02;5.57;;;;;;;-145.00;100.00;60578.66;5077637;28;20534;-51
2022/01/01 08:35:30;;;;;;;11.05;4.32;;;;;;;-145.00;100.00;60578.66;5077945;28;20480;-51
2022/01/01 08:37:58;;;;;;;11.80;4.47;;;;;;;-145.00;100.00;60578.66;5078413;28;20057;-49
2022/01/01 08:40:27;;;;;;;14.07;4.68;;;;;;;-145.00;100.00;60578.66;5078106;28;20058;-51
2022/01/01 08:42:56;;;;;;;12.48;4.72;;;;;;;-145.00;100.00;60578.66;5077221;28;20064;-49
2022/01/01 08:45:24;;;;;;;13.40;4.63;;;;;;;-145.00;100.00;60578.66;5078291;28;20384;-52
2022/01/01 08:47:54;;;;;;;13.93;4.20;;;;;;;-145.00;100.00;60578.66;5077100;28;20067;-50
2022/01/01 08:50:22;;;;;;;15.25;3.97;;;;;;;-145.00;100.00;60578.66;5077342;28;20527;-50
2022/01/01 08:52:50;;;;;;;14.60;4.47;;;;;;;-145.00;100.00;60578.66;5077066;28;20447;-51
2022/01/01 08:55:19;;;;;;;18.10;4.63;;;;;;;-145.00;100.00;60578.66;5076730;28;20061;-50
2022/01/01 08:57:48;;;;;;;10.77;3.65;;;;;;;-145.00;100.00;60578.66;5076914;28;20072;-49
2022/01/01 09:00:16;;;;;;;16.63;4.22;;;;;;;-145.00;100.00;60578.66;5077775;28;20053;-51
2022/01/01 09:02:45;;;;;;;13.07;4.60;;;;;;;-145.00;100.00;60578.66;5076873;28;20053;-51
2022/01/01 09:05:15;;;;;;;22.08;4.60;;;;;;;-145.00;100.00;60578.66;5077644;28;20086;-50
2022/01/01 09:07:43;;;;;;;12.80;4.70;;;;;;;-145.00;100.00;60578.66;5076738;28;20535;-49
2022/01/01 09:10:11;;;;;;;12.95;4.03;;;;;;;-145.00;100.00;60578.66;5076712;28;20508;-50
2022/01/01 09:12:39;;;;;;;15.98;4.03;;;;;;;-145.00;100.00;60578.66;5077723;28;20535;-51
2022/01/01 09:15:08;;;;;;;15.50;4.35;;;;;;;-145.00;100.00;60578.66;5077808;28;20072;-51
2022/01/01 09:17:36;;;;;;;15.05;3.70;;;;;;;-145.00;100.00;60578.66;5077197;28;20057;-52
2022/01/01 09:20:05;;;;;;;14.85;3.90;;;;;;;-145.00;100.00;60578.66;5076487;28;20067;-49
2022/01/01 09:22:35;;;;;;;17.48;4.13;;;;;;;-145.00;100.00;60578.66;5076779;28;20057;-49
2022/01/01 09:25:03;;;;;;;13.57;4.15;;;;;;;-145.00;100.00;60578.66;5077550;28;20062;-50
2022/01/01 09:27:31;;;;;;;13.15;4.80;;;;;;;-145.00;100.00;60578.66;5077378;28;20060;-49
2022/01/01 09:29:59;;;;;;;16.73;3.47;;;;;;;-145.00;100.00;60578.66;5076641;28;20052;-51
2022/01/01 09:32:27;;;;;;;13.75;4.45;;;;;;;-145.00;100.00;60578.66;5075657;28;20052;-51
2022/01/01 09:34:56;;;;;;;14.48;5.20;;;;;;;-145.00;100.00;60578.66;5077177;28;20052;-49
2022/01/01 09:37:24;;;;;;;19.92;4.80;;;;;;;-145.00;100.00;60578.66;5076202;28;20067;-49
2022/01/01 09:40:01;;;;;;;17.55;4.40;;;;;;;-145.00;100.00;60578.66;5075786;28;20056;-52
2022/01/01 09:42:29;;;;;;;14.82;4.03;;;;;;;-145.00;100.00;60578.66;5076698;28;20059;-50
2022/01/01 09:44:58;;;;;;;22.92;5.25;;;;;;;-145.00;100.00;60578.66;5075677;28;20500;-52
2022/01/01 09:47:26;;;;;;;15.48;4.60;;;;;;;-145.00;100.00;60578.66;5076343;28;20052;-52
2022/01/01 09:49:55;;;;;;;18.48;4.55;;;;;;;-145.00;100.00;60578.66;5075976;28;20057;-51
2022/01/01 09:52:23;;;;;;;13.90;3.95;;;;;;;-145.00;100.00;60578.66;5076169;28;20534;-50
2022/01/01 09:54:52;;;;;;;12.80;4.22;;;;;;;-145.00;100.00;60578.66;5075631;28;20170;-49
2022/01/01 09:57:22;;;;;;;18.05;4.40;;;;;;;-145.00;100.00;60578.66;5076072;28;20057;-51
2022/01/01 09:59:51;;;;;;;14.98;4.13;;;;;;;-145.00;100.00;60578.66;5075538;28;20052;-51
2022/01/01 10:02:19;;;;;;;13.20;3.83;;;;;;;-145.00;100.00;60578.66;5075678;28;20052;-49
2022/01/01 10:04:50;;;;;;;16.90;4.55;;;;;;;-145.00;100.00;60578.66;5076316;28;20064;-50
2022/01/01 10:07:19;;;;;;;20.10;4.47;;;;;;;-145.00;100.00;60578.66;5075473;28;20056;-49
2022/01/01 10:09:47;;;;;;;18.35;4.38;;;;;;;-145.00;100.00;60578.66;5075574;28;20052;-51
2022/01/01 10:12:16;;;;;;;14.38;3.70;;;;;;;-145.00;100.00;60578.66;5076634;28;20060;-50
2022/01/01 10:14:47;;;;;;;14.40;4.03;;;;;;;-145.00;100.00;60578.66;5075787;28;20071;-49
2022/01/01 10:17:17;;;;;;;16.15;3.78;;;;;;;-145.00;100.00;60578.66;5075521;28;20060;-50
2022/01/01 10:19:47;;;;;;;21.98;3.92;;;;;;;-145.00;100.00;60578.66;5075854;28;20064;-52
2022/01/01 10:22:18;;;;;;;14.50;4.00;;;;;;;-145.00;100.00;60578.66;5075293;28;20057;-51
2022/01/01 10:27:44;;;;;;;10.70;3.20;;;;;;;-145.00;100.00;60578.66;5074774;28;20057;-52
2022/01/01 10:30:23;;;;;;;18.67;4.15;;;;;;;-145.00;100.00;60578.66;5075215;28;20056;-49
2022/01/01 10:33:05;;;;;;;18.58;3.42;;;;;;;-145.00;100.00;60578.66;5076275;28;20060;-49
2022/01/01 10:35:42;;;;;;;17.42;4.88;;;;;;;-145.00;100.00;60578.66;5075513;28;20064;-50
2022/01/01 10:38:12;;;;;;;17.48;3.80;;;;;;;-145.00;100.00;60578.66;5074736;28;20053;-50
2022/01/01 10:40:41;;;;;;;13.88;4.20;;;;;;;-145.00;100.00;60578.66;5075028;28;20071;-50
2022/01/01 10:43:10;;;;;;;12.82;3.83;;;;;;;-145.00;100.00;60578.66;5075198;28;20067;-50
2022/01/01 10:45:41;;;;;;;13.68;4.47;;;;;;;-145.00;100.00;60578.66;5075880;28;20052;-49
2022/01/01 10:48:17;;;;;;;;;;;;;;;-145.00;100.00;60578.66;5075037;28;20067;-49
2022/01/01 10:50:45;;;;;;;16.67;4.40;;;;;;;-145.00;100.00;60578.66;5075955;28;19921;-50
2022/01/01 10:53:15;;;;;;;16.90;4.70;;;;;;;-145.00;100.00;60578.66;5075019;28;20059;-50
2022/01/01 10:55:47;;;;;;;15.95;4.05;;;;;;;-145.00;100.00;60578.66;5075814;28;20075;-51
2022/01/01 10:58:20;;;;;;;17.13;4.22;;;;;;;-145.00;100.00;60578.66;5075353;28;20057;-50
2022/01/01 11:00:51;;;;;;;19.90;5.00;;;;;;;-145.00;100.00;60578.66;5074645;28;20550;-50
2022/01/01 11:03:20;;;;;;;12.35;4.28;;;;;;;-145.00;100.00;60578.66;5074270;28;20053;-50
2022/01/01 11:05:51;;;;;;;17.02;4.10;;;;;;;-145.00;100.00;60578.66;5074332;28;20508;-50
2022/01/01 11:08:19;;;;;;;18.50;3.97;;;;;;;-145.00;100.00;60578.66;5074231;28;20114;-50
2022/01/01 11:10:47;;;;;;;20.33;4.03;;;;;;;-145.00;100.00;60578.66;5074984;28;20056;-49
2022/01/01 11:13:16;;;;;;;14.55;4.45;;;;;;;-145.00;100.00;60578.66;5074433;28;20059;-50
2022/01/01 11:15:44;;;;;;;14.77;4.20;;;;;;;-145.00;100.00;60578.66;5075569;28;20064;-50
2022/01/01 11:18:14;;;;;;;13.23;4.03;;;;;;;-145.00;100.00;60578.66;5074927;28;20404;-50